Time;durP1;ratioP1;P1;durP2;ratioP2;P2;SDS_P1;SDS_P2;PMS_P1;PMS_P2;Temp;Humidity;BMP_temperature;BMP_pressure;BME280_temperature;BME280_humidity;BME280_pressure;Samples;Min_cycle;Max_cycle;Signal;HPM_P1;HPM_P2
2022/04/12 00:00:45;;;;;;;8.95;4.30;;;;;;;7.48;81.74;100118.91;20775519;28;20103;-68
2022/04/12 00:10:47;;;;;;;11.32;5.35;;;;;;;7.46;82.12;100111.06;20776597;28;20054;-68
2022/04/12 00:20:49;;;;;;;8.38;4.03;;;;;;;7.34;83.09;100112.03;20792192;28;20104;-68
2022/04/12 00:30:50;;;;;;;9.45;4.47;;;;;;;7.15;84.94;100110.44;20791842;28;20049;-66
2022/04/12 00:40:53;;;;;;;8.27;4.40;;;;;;;7.11;84.77;100108.72;20791603;28;20099;-67
2022/04/12 00:50:56;;;;;;;10.68;4.18;;;;;;;7.04;85.04;100115.72;20791605;28;20049;-65
2022/04/12 01:00:58;;;;;;;9.55;4.88;;;;;;;6.92;85.89;100111.44;20789163;28;20042;-65
2022/04/12 01:11:06;;;;;;;7.05;3.85;;;;;;;6.91;86.46;100106.25;20788420;28;20392;-65
2022/04/12 01:21:08;;;;;;;8.48;4.22;;;;;;;6.87;86.03;100105.38;20789379;28;20049;-65
2022/04/12 01:31:11;;;;;;;8.30;4.38;;;;;;;6.79;87.43;100093.28;20779176;28;20047;-65
2022/04/12 01:41:13;;;;;;;9.93;4.55;;;;;;;6.58;89.43;100092.53;20786558;28;20060;-65
2022/04/12 01:51:15;;;;;;;16.13;4.78;;;;;;;6.50;89.71;100085.63;20784502;28;20094;-65
2022/04/12 02:01:16;;;;;;;8.95;4.60;;;;;;;6.43;89.81;100080.44;20786336;28;20050;-65
2022/04/12 02:11:18;;;;;;;11.07;5.07;;;;;;;6.49;88.65;100070.88;20784580;28;20057;-65
2022/04/12 02:21:20;;;;;;;9.68;5.05;;;;;;;6.44;89.05;100068.31;20783043;28;20041;-65
2022/04/12 02:31:21;;;;;;;10.88;4.93;;;;;;;6.41;88.88;100069.16;20782071;28;20042;-65
2022/04/12 02:41:23;;;;;;;9.75;5.38;;;;;;;6.33;89.64;100080.50;20778483;28;20042;-65
2022/04/12 02:51:24;;;;;;;8.93;5.03;;;;;;;6.25;90.28;100077.06;20781681;28;20499;-65
2022/04/12 03:01:26;;;;;;;10.80;5.13;;;;;;;6.20;91.79;100065.81;20782262;28;20050;-65
2022/04/12 03:11:28;;;;;;;9.90;5.20;;;;;;;5.99;92.23;100069.31;20778989;28;20104;-65
2022/04/12 03:21:29;;;;;;;9.73;5.10;;;;;;;6.00;91.84;100064.13;20774200;28;20131;-65
2022/04/12 03:31:31;;;;;;;9.45;4.22;;;;;;;5.80;92.44;100066.75;20776408;28;20499;-66
2022/04/12 03:41:32;;;;;;;11.70;5.22;;;;;;;5.70;94.88;100072.81;20775169;28;20061;-66
2022/04/12 03:51:35;;;;;;;9.38;5.10;;;;;;;5.56;94.75;100071.97;20772471;28;20050;-66
2022/04/12 04:01:37;;;;;;;8.90;4.82;;;;;;;5.40;95.97;100077.16;20774985;28;20042;-66
2022/04/12 04:11:39;;;;;;;8.82;4.60;;;;;;;5.26;97.23;100078.88;20775448;28;20053;-65
2022/04/12 04:21:40;;;;;;;11.68;4.88;;;;;;;5.14;97.04;100074.53;20776043;28;20046;-67
2022/04/12 04:31:42;;;;;;;8.40;4.55;;;;;;;5.15;98.11;100083.19;20775076;28;20049;-67
2022/04/12 04:41:43;;;;;;;11.07;5.38;;;;;;;5.11;97.11;100086.66;20774388;28;20073;-67
2022/04/12 04:51:45;;;;;;;9.55;4.82;;;;;;;5.33;96.16;100083.22;20774961;28;20054;-67
2022/04/12 05:01:46;;;;;;;11.07;5.47;;;;;;;5.42;95.34;100089.28;20780451;28;20049;-67
2022/04/12 05:11:48;;;;;;;11.10;5.00;;;;;;;5.50;95.52;100095.31;20787268;28;20063;-68
2022/04/12 05:21:50;;;;;;;12.00;5.45;;;;;;;5.73;93.84;100093.56;20788030;28;20545;-68
2022/04/12 05:31:52;;;;;;;10.60;5.30;;;;;;;5.81;93.19;100096.19;20769261;28;20072;-68
2022/04/12 05:41:53;;;;;;;11.55;5.25;;;;;;;5.82;94.00;100098.78;20786022;28;20099;-69
2022/04/12 05:51:55;;;;;;;9.10;5.13;;;;;;;6.13;92.18;100101.31;20784977;28;20107;-68
2022/04/12 06:01:57;;;;;;;14.00;6.15;;;;;;;6.58;88.48;100104.66;20782057;28;20042;-68
2022/04/12 06:11:58;;;;;;;11.20;5.75;;;;;;;7.05;86.08;100111.38;20780629;28;20053;-70
2022/04/12 06:22:00;;;;;;;11.50;6.20;;;;;;;7.49;82.83;100100.63;20784301;28;20495;-67
2022/04/12 06:32:01;;;;;;;11.65;6.20;;;;;;;7.80;80.40;100098.63;20799094;28;20561;-68
2022/04/12 06:42:03;;;;;;;11.88;5.53;;;;;;;8.07;78.59;100104.44;20782797;28;20045;-69
2022/04/12 06:52:04;;;;;;;10.73;5.53;;;;;;;8.45;77.35;100110.13;20777696;28;20046;-68
2022/04/12 07:02:06;;;;;;;9.55;5.30;;;;;;;8.78;74.68;100114.97;20786179;28;20058;-68
2022/04/12 07:12:08;;;;;;;8.43;5.30;;;;;;;9.17;72.05;100118.78;20770724;28;20545;-68
2022/04/12 07:22:10;;;;;;;11.75;5.97;;;;;;;9.72;68.56;100124.00;20770220;28;20046;-68
2022/04/12 07:32:14;;;;;;;10.38;5.45;;;;;;;9.88;68.25;100114.16;20764279;28;20048;-67
2022/04/12 07:42:16;;;;;;;8.95;4.70;;;;;;;10.35;65.25;100106.34;20766063;28;20400;-67
2022/04/12 07:52:18;;;;;;;12.98;4.93;;;;;;;10.73;63.93;100095.97;20757096;28;20064;-67
2022/04/12 08:02:19;;;;;;;9.82;5.07;;;;;;;10.85;65.46;100094.84;20762154;28;20116;-68
2022/04/12 08:12:21;;;;;;;11.10;4.20;;;;;;;11.28;62.43;100083.38;20769244;28;20469;-68
2022/04/12 08:22:22;;;;;;;8.60;4.70;;;;;;;11.82;59.21;100082.94;20767614;28;20042;-67
2022/04/12 08:32:44;;;;;;;10.35;4.30;;;;;;;12.22;58.62;100090.63;20769297;28;20082;-66
2022/04/12 08:42:46;;;;;;;12.52;4.90;;;;;;;12.62;57.13;100100.00;20782671;28;20063;-66
2022/04/12 08:52:49;;;;;;;8.48;4.25;;;;;;;13.02;54.72;100089.16;20783058;28;20061;-68
2022/04/12 09:02:58;;;;;;;8.70;4.18;;;;;;;13.24;55.49;100062.25;20781591;28;20049;-68
2022/04/12 09:13:11;;;;;;;8.57;4.25;;;;;;;13.57;55.49;100061.13;20782412;28;20144;-68
2022/04/12 09:23:14;;;;;;;9.77;4.30;;;;;;;13.85;53.97;100054.94;20779558;28;20471;-68
2022/04/12 09:33:34;;;;;;;7.43;4.53;;;;;;;14.37;51.90;100058.31;20777328;28;20068;-68
2022/04/12 09:43:41;;;;;;;7.75;4.25;;;;;;;14.49;52.56;100052.66;20776427;28;20050;-67
2022/04/12 09:53:45;;;;;;;8.05;4.25;;;;;;;14.72;51.38;100040.38;20776868;28;20054;-68
2022/04/12 10:03:49;;;;;;;7.93;3.85;;;;;;;15.22;51.26;100038.38;20775944;28;20046;-68
2022/04/12 10:13:51;;;;;;;11.43;4.60;;;;;;;15.55;50.67;100020.28;20779683;28;20061;-68
2022/04/12 10:23:56;;;;;;;8.70;4.03;;;;;;;15.97;49.82;99984.22;20775130;28;20506;-68
2022/04/12 10:34:00;;;;;;;7.60;3.90;;;;;;;16.29;48.81;99973.06;20772523;28;20096;-68
2022/04/12 10:44:02;;;;;;;9.15;4.50;;;;;;;16.60;48.41;99953.97;20773740;28;20049;-68
2022/04/12 10:54:06;;;;;;;8.90;4.05;;;;;;;16.98;47.65;99945.16;20772596;28;20503;-67
2022/04/12 11:04:09;;;;;;;8.27;3.77;;;;;;;17.35;48.02;99934.44;20772037;28;20049;-68
2022/04/12 11:14:25;;;;;;;7.05;3.38;;;;;;;17.70;45.91;99926.47;20774930;28;20049;-68
2022/04/12 11:24:26;;;;;;;11.63;3.58;;;;;;;18.05;45.47;99911.34;20772357;28;20046;-68
2022/04/12 11:34:29;;;;;;;8.40;3.50;;;;;;;18.53;43.61;99901.63;20767415;28;20050;-68
2022/04/12 11:44:31;;;;;;;8.32;3.10;;;;;;;18.80;43.25;99885.97;20769790;28;20480;-68
2022/04/12 11:54:35;;;;;;;8.93;3.20;;;;;;;19.10;41.96;99870.06;20768379;28;20053;-68
2022/04/12 12:04:44;;;;;;;8.30;3.07;;;;;;;19.42;41.67;99867.28;20768016;28;20057;-68
2022/04/12 12:14:46;;;;;;;6.75;2.30;;;;;;;19.42;42.45;99860.16;20770146;28;20081;-68
2022/04/12 12:24:56;;;;;;;5.20;2.53;;;;;;;20.44;39.82;99839.56;20766029;28;20053;-67
2022/04/12 12:35:14;;;;;;;5.03;2.30;;;;;;;20.24;40.28;99840.84;20765003;28;20049;-68
2022/04/12 12:45:19;;;;;;;5.70;2.00;;;;;;;20.99;37.43;99827.09;20766514;28;20049;-67
2022/04/12 12:55:23;;;;;;;6.80;1.60;;;;;;;20.99;37.86;99809.31;20767536;28;20049;-68
2022/04/12 13:05:25;;;;;;;4.20;1.60;;;;;;;21.78;35.12;99808.22;20764614;28;20062;-68
2022/04/12 13:15:27;;;;;;;6.03;1.58;;;;;;;21.57;35.62;99804.44;20763652;28;20407;-68
2022/04/12 13:25:30;;;;;;;6.70;1.77;;;;;;;22.63;34.23;99802.94;20776751;28;20060;-68
2022/04/12 13:35:32;;;;;;;6.63;1.40;;;;;;;22.13;34.54;99785.34;20778805;28;20462;-67
2022/04/12 13:45:34;;;;;;;9.23;1.52;;;;;;;22.64;33.05;99779.75;20779518;28;20104;-67
2022/04/12 13:55:36;;;;;;;4.20;1.52;;;;;;;23.07;33.19;99771.16;20778609;28;20465;-66
2022/04/12 14:05:38;;;;;;;3.78;1.20;;;;;;;23.46;31.90;99751.16;20765089;28;20057;-67
2022/04/12 14:15:39;;;;;;;5.00;1.30;;;;;;;23.39;29.36;99749.94;20751813;28;20050;-66
2022/04/12 14:25:41;;;;;;;2.95;1.20;;;;;;;23.45;30.39;99738.75;20775050;28;20045;-66
2022/04/12 14:35:43;;;;;;;4.43;1.42;;;;;;;23.25;31.50;99746.53;20772499;28;20054;-68
2022/04/12 14:45:45;;;;;;;4.47;0.90;;;;;;;23.45;27.69;99736.09;20773134;28;20045;-67
2022/04/12 14:55:48;;;;;;;3.53;1.20;;;;;;;23.25;29.26;99741.19;20771337;28;20057;-67
2022/04/12 15:05:49;;;;;;;4.07;1.20;;;;;;;23.07;29.42;99731.94;20771224;28;20573;-68
2022/04/12 15:15:51;;;;;;;4.30;1.10;;;;;;;23.14;27.85;99724.28;20768131;28;20116;-67
2022/04/12 15:25:52;;;;;;;5.43;1.77;;;;;;;22.90;28.61;99727.06;20771807;28;20049;-67
2022/04/12 15:35:54;;;;;;;6.28;1.30;;;;;;;22.69;28.39;99717.06;20764829;28;20133;-68
2022/04/12 15:45:55;;;;;;;4.20;1.15;;;;;;;22.84;30.85;99727.50;20758789;28;20049;-67
2022/04/12 15:55:57;;;;;;;4.80;1.55;;;;;;;22.55;33.13;99725.25;20769859;28;20116;-68
2022/04/12 16:05:58;;;;;;;5.13;1.20;;;;;;;22.48;32.67;99727.56;20768255;28;20052;-68
2022/04/12 16:16:04;;;;;;;4.22;1.40;;;;;;;22.22;32.51;99737.50;20768040;28;20485;-68
2022/04/12 16:26:07;;;;;;;4.47;1.38;;;;;;;22.42;32.14;99735.16;20767062;28;20045;-67
2022/04/12 16:36:08;;;;;;;2.58;1.10;;;;;;;22.35;33.45;99737.44;20763689;28;20060;-67
2022/04/12 16:46:10;;;;;;;4.40;1.45;;;;;;;22.30;34.22;99733.44;20766844;28;20054;-68
2022/04/12 16:56:13;;;;;;;3.70;1.42;;;;;;;21.77;35.20;99737.25;20774276;28;20064;-67
2022/04/12 17:06:15;;;;;;;5.18;1.50;;;;;;;21.27;35.68;99747.03;20780793;28;20052;-67
2022/04/12 17:16:16;;;;;;;5.15;1.30;;;;;;;20.80;37.16;99746.81;20781940;28;20559;-68
2022/04/12 17:26:19;;;;;;;4.22;1.67;;;;;;;20.54;36.66;99756.53;20779913;28;20052;-67
2022/04/12 17:36:21;;;;;;;4.15;1.40;;;;;;;20.10;37.74;99769.13;20772648;28;20104;-68
2022/04/12 17:46:22;;;;;;;4.82;1.50;;;;;;;19.95;37.74;99784.25;20776781;28;20131;-67
2022/04/12 17:56:24;;;;;;;2.78;1.20;;;;;;;19.65;37.42;99783.56;20785715;28;20152;-67
2022/04/12 18:06:26;;;;;;;2.35;1.27;;;;;;;19.56;37.43;99795.59;20789420;28;20054;-67
2022/04/12 18:16:27;;;;;;;3.75;1.55;;;;;;;19.13;38.69;99795.56;20775981;28;20065;-68
2022/04/12 18:26:29;;;;;;;5.25;1.50;;;;;;;19.07;39.07;99809.22;20775126;28;20056;-67
2022/04/12 18:36:32;;;;;;;4.90;1.42;;;;;;;18.78;40.07;99820.69;20769820;28;20057;-67
2022/04/12 18:46:33;;;;;;;3.47;1.20;;;;;;;18.57;40.20;99818.31;20776228;28;20064;-67
2022/04/12 18:56:35;;;;;;;4.35;1.75;;;;;;;18.28;40.59;99838.53;20779329;28;20052;-67
2022/04/12 19:06:36;;;;;;;4.45;1.80;;;;;;;18.12;41.90;99858.91;20780022;28;20045;-67
2022/04/12 19:16:38;;;;;;;4.20;1.88;;;;;;;17.86;43.52;99866.47;20777046;28;20060;-67
2022/04/12 19:26:39;;;;;;;5.85;2.58;;;;;;;17.60;45.06;99875.78;20784970;28;20054;-67
2022/04/12 19:36:41;;;;;;;3.88;1.70;;;;;;;17.26;48.41;99879.34;20780812;28;20747;-67
2022/04/12 19:46:43;;;;;;;4.80;2.25;;;;;;;17.09;50.74;99887.28;20763787;28;20091;-66
2022/04/12 19:56:44;;;;;;;6.18;3.15;;;;;;;16.81;50.41;99888.66;20772304;28;20080;-66
2022/04/12 20:06:46;;;;;;;6.00;3.10;;;;;;;16.62;54.56;99904.56;20782145;28;20129;-67
2022/04/12 20:16:48;;;;;;;5.00;2.25;;;;;;;16.41;51.24;99900.28;20773860;28;20053;-67
2022/04/12 20:26:50;;;;;;;10.82;3.75;;;;;;;16.20;52.84;99904.81;20772180;28;20153;-68
2022/04/12 20:36:52;;;;;;;5.10;2.35;;;;;;;16.07;54.72;99906.28;20784441;28;20064;-68
2022/04/12 20:46:54;;;;;;;5.20;2.20;;;;;;;15.85;56.27;99917.81;20784196;28;20072;-69
2022/04/12 20:56:55;;;;;;;5.18;2.40;;;;;;;15.76;57.62;99918.25;20784211;28;20055;-69
2022/04/12 21:06:58;;;;;;;4.93;2.13;;;;;;;15.62;61.48;99910.06;20780059;28;20408;-68
2022/04/12 21:16:59;;;;;;;5.63;2.90;;;;;;;15.49;61.84;99908.88;20781100;28;20053;-70
2022/04/12 21:27:01;;;;;;;8.50;3.00;;;;;;;15.30;63.77;99916.75;20779971;28;20083;-69
2022/04/12 21:37:06;;;;;;;;;;;;;;;15.07;64.31;99922.97;20776204;28;20052;-69
2022/04/12 21:47:07;;;;;;;7.10;2.80;;;;;;;14.80;65.03;99932.88;20777147;28;19932;-70
2022/04/12 21:57:09;;;;;;;5.50;2.50;;;;;;;14.52;68.10;99941.91;20770785;28;20144;-69
2022/04/12 22:07:10;;;;;;;8.50;3.05;;;;;;;14.28;71.66;99954.22;20774217;28;20050;-69
2022/04/12 22:17:12;;;;;;;9.85;4.07;;;;;;;14.06;74.40;99964.66;20784211;28;20046;-69
2022/04/12 22:27:13;;;;;;;9.68;4.00;;;;;;;14.03;76.96;99956.88;20782648;28;20045;-69
2022/04/12 22:37:15;;;;;;;7.00;3.20;;;;;;;13.86;76.32;99967.19;20781690;28;20046;-68
2022/04/12 22:47:16;;;;;;;8.05;3.55;;;;;;;13.78;75.88;99985.84;20780625;28;20054;-69
2022/04/12 22:57:18;;;;;;;9.18;3.55;;;;;;;13.65;75.76;99995.09;20779545;28;20553;-69
2022/04/12 23:07:19;;;;;;;8.63;4.55;;;;;;;13.55;79.26;100005.06;20780450;28;20046;-69
2022/04/12 23:17:21;;;;;;;8.23;4.35;;;;;;;13.38;81.41;100012.69;20781340;28;20060;-68
2022/04/12 23:27:29;;;;;;;8.88;4.05;;;;;;;13.17;84.36;100014.22;20933171;28;20380;-70
2022/04/12 23:37:34;;;;;;;9.93;4.15;;;;;;;12.99;86.04;100012.19;20988515;28;20046;-70
2022/04/12 23:47:35;;;;;;;6.70;3.67;;;;;;;12.78;86.12;100008.44;21013430;28;20053;-69
2022/04/12 23:57:38;;;;;;;8.35;3.90;;;;;;;12.56;87.46;100026.66;21012366;28;20093;-69
